createdAt,value
2018-09-30T00:02:09.713Z,11.27
2018-09-30T00:07:02.371Z,11.27
2018-09-30T00:11:55.193Z,11.26
2018-09-30T00:16:47.853Z,11.21
2018-09-30T00:21:40.463Z,11.11
2018-09-30T00:26:38.911Z,11.07
2018-09-30T00:31:31.533Z,11.06
2018-09-30T00:36:24.262Z,11.01
2018-09-30T00:41:16.860Z,11.02
2018-09-30T00:46:09.766Z,11.02
2018-09-30T00:51:02.717Z,10.96
2018-09-30T00:55:55.394Z,10.93
2018-09-30T01:00:48.047Z,10.88
2018-09-30T01:05:40.694Z,10.84
2018-09-30T01:10:33.412Z,10.77
2018-09-30T01:15:26.059Z,10.65
2018-09-30T01:20:18.762Z,10.60
2018-09-30T01:25:11.399Z,10.56
2018-09-30T01:30:04.391Z,10.52
2018-09-30T01:34:57.039Z,10.47
2018-09-30T01:39:49.630Z,10.47
2018-09-30T01:44:42.268Z,10.43
2018-09-30T01:49:34.911Z,10.32
2018-09-30T01:54:27.610Z,10.26
2018-09-30T01:59:20.318Z,10.21
2018-09-30T02:04:12.976Z,10.16
2018-09-30T02:09:05.713Z,10.06
2018-09-30T02:13:58.297Z,10.00
2018-09-30T02:18:51.003Z,9.99
2018-09-30T02:23:43.624Z,10.01
2018-09-30T02:28:36.238Z,9.97
2018-09-30T02:33:28.872Z,9.92
2018-09-30T02:38:21.532Z,9.89
2018-09-30T02:43:14.174Z,9.85
2018-09-30T02:48:06.805Z,9.78
2018-09-30T02:52:59.470Z,9.72
2018-09-30T02:57:52.071Z,9.65
2018-09-30T03:02:44.681Z,9.59
2018-09-30T03:07:43.030Z,9.55
2018-09-30T03:12:35.665Z,9.53
2018-09-30T03:17:28.351Z,9.53
2018-09-30T03:22:21.003Z,9.53
2018-09-30T03:27:13.633Z,9.53
2018-09-30T03:32:06.243Z,9.53
2018-09-30T03:36:58.958Z,9.52
2018-09-30T03:41:51.620Z,9.54
2018-09-30T03:46:44.247Z,9.51
2018-09-30T03:51:36.882Z,9.47
2018-09-30T03:56:29.783Z,9.43
2018-09-30T04:01:22.435Z,9.34
2018-09-30T04:06:15.086Z,9.31
2018-09-30T04:11:07.860Z,9.34
2018-09-30T04:16:00.503Z,9.34
2018-09-30T04:20:53.197Z,9.32
2018-09-30T04:25:45.806Z,9.29
2018-09-30T04:30:38.469Z,9.22
2018-09-30T04:35:31.196Z,9.21
2018-09-30T04:40:24.058Z,9.18
2018-09-30T04:45:16.688Z,9.13
2018-09-30T04:50:09.392Z,9.16
2018-09-30T04:55:02.038Z,9.15
2018-09-30T04:59:54.739Z,9.12
2018-09-30T05:04:47.412Z,9.09
2018-09-30T05:09:40.041Z,9.06
2018-09-30T05:14:32.758Z,9.04
2018-09-30T05:19:25.466Z,8.99
2018-09-30T05:24:18.194Z,8.95
2018-09-30T05:29:10.834Z,8.90
2018-09-30T05:34:03.487Z,8.88
2018-09-30T05:38:56.131Z,8.88
2018-09-30T05:43:48.791Z,8.90
2018-09-30T05:48:41.479Z,8.93
2018-09-30T05:53:34.120Z,8.92
2018-09-30T05:58:27.043Z,8.88
2018-09-30T06:03:19.859Z,8.86
2018-09-30T06:08:12.773Z,8.88
2018-09-30T06:13:05.880Z,8.88
2018-09-30T06:17:59.188Z,8.92
2018-09-30T06:22:51.981Z,8.96
2018-09-30T06:27:44.884Z,9.06
2018-09-30T06:32:37.898Z,9.21
2018-09-30T06:37:30.922Z,9.37
2018-09-30T06:42:23.762Z,9.59
2018-09-30T06:47:16.827Z,9.71
2018-09-30T06:52:10.136Z,9.81
2018-09-30T06:57:03.071Z,9.91
2018-09-30T07:01:55.999Z,9.91
2018-09-30T07:06:48.975Z,10.04
2018-09-30T07:11:41.870Z,10.21
2018-09-30T07:16:34.718Z,10.43
2018-09-30T07:21:27.592Z,10.64
2018-09-30T07:26:20.435Z,10.76
2018-09-30T07:31:13.298Z,10.93
2018-09-30T07:36:07.260Z,11.16
2018-09-30T07:41:00.674Z,11.23
2018-09-30T07:45:53.542Z,11.34
2018-09-30T07:50:46.463Z,11.45
2018-09-30T07:55:39.347Z,11.55
2018-09-30T08:00:32.068Z,11.59
2018-09-30T08:05:24.936Z,11.69
2018-09-30T08:10:18.298Z,11.95
2018-09-30T08:15:11.749Z,12.02
2018-09-30T08:20:04.697Z,12.23
2018-09-30T08:24:57.595Z,12.44
2018-09-30T08:29:50.424Z,12.67
2018-09-30T08:34:43.361Z,12.89
2018-09-30T08:39:36.223Z,13.10
2018-09-30T08:44:29.076Z,13.34
2018-09-30T08:49:21.879Z,13.60
2018-09-30T08:54:14.867Z,13.80
2018-09-30T08:59:07.782Z,14.20
2018-09-30T09:04:00.706Z,14.63
2018-09-30T09:08:53.744Z,15.00
2018-09-30T09:13:46.643Z,15.29
2018-09-30T09:18:41.855Z,15.41
2018-09-30T09:23:35.061Z,15.63
2018-09-30T09:28:29.966Z,15.85
2018-09-30T09:33:26.984Z,16.22
2018-09-30T09:38:23.302Z,16.38
2018-09-30T09:43:16.388Z,16.69
2018-09-30T09:48:09.125Z,16.98
2018-09-30T09:53:01.788Z,17.24
2018-09-30T09:57:54.459Z,17.56
2018-09-30T10:02:47.122Z,17.73
2018-09-30T10:07:39.824Z,17.91
2018-09-30T10:12:32.507Z,18.04
2018-09-30T10:17:25.142Z,18.15
2018-09-30T10:22:17.834Z,18.14
2018-09-30T10:27:10.495Z,18.27
2018-09-30T10:32:03.126Z,18.48
2018-09-30T10:36:55.707Z,18.57
2018-09-30T10:41:48.350Z,18.65
2018-09-30T10:46:41.004Z,18.77
2018-09-30T10:51:33.586Z,18.78
2018-09-30T10:56:26.224Z,18.93
2018-09-30T11:01:19.082Z,19.27
2018-09-30T11:06:11.796Z,19.41
2018-09-30T11:11:04.606Z,19.66
2018-09-30T11:15:57.322Z,19.75
2018-09-30T11:20:50.011Z,19.99
2018-09-30T11:25:42.694Z,20.08
2018-09-30T11:30:35.406Z,20.04
2018-09-30T11:35:28.038Z,19.99
2018-09-30T11:40:20.696Z,19.98
2018-09-30T11:45:13.806Z,20.08
2018-09-30T11:50:06.537Z,20.23
2018-09-30T11:54:59.251Z,20.33
2018-09-30T11:59:51.924Z,20.27
2018-09-30T12:04:44.830Z,20.29
2018-09-30T12:09:37.417Z,20.43
2018-09-30T12:14:30.079Z,20.59
2018-09-30T12:19:22.778Z,20.74
2018-09-30T12:24:15.461Z,20.89
2018-09-30T12:29:08.094Z,21.24
2018-09-30T12:34:00.683Z,21.52
2018-09-30T12:38:53.316Z,21.49
2018-09-30T12:43:46.102Z,21.31
2018-09-30T12:48:38.761Z,21.27
2018-09-30T12:53:31.368Z,21.44
2018-09-30T12:58:24.099Z,21.62
2018-09-30T13:03:16.752Z,21.73
2018-09-30T13:08:09.456Z,21.87
2018-09-30T13:13:02.134Z,21.90
2018-09-30T13:17:54.848Z,21.88
2018-09-30T13:22:47.499Z,21.77
2018-09-30T13:27:40.263Z,22.00
2018-09-30T13:32:32.936Z,22.12
2018-09-30T13:37:25.702Z,22.09
2018-09-30T13:42:18.418Z,22.00
2018-09-30T13:47:11.132Z,21.84
2018-09-30T13:52:03.906Z,22.09
2018-09-30T13:56:56.639Z,22.03
2018-09-30T14:01:49.271Z,22.03
2018-09-30T14:06:41.963Z,22.25
2018-09-30T14:11:34.671Z,22.36
2018-09-30T14:16:27.398Z,22.14
2018-09-30T14:21:20.050Z,22.19
2018-09-30T14:26:12.686Z,22.13
2018-09-30T14:31:05.573Z,22.26
2018-09-30T14:35:58.274Z,22.26
2018-09-30T14:40:50.967Z,22.07
2018-09-30T14:45:43.586Z,22.03
2018-09-30T14:50:36.246Z,21.94
2018-09-30T14:55:28.922Z,21.80
2018-09-30T15:00:21.619Z,21.89
2018-09-30T15:05:14.270Z,21.99
2018-09-30T15:10:06.942Z,21.91
2018-09-30T15:14:59.722Z,21.88
2018-09-30T15:19:52.358Z,21.97
2018-09-30T15:24:45.055Z,22.02
2018-09-30T15:29:37.716Z,21.85
2018-09-30T15:34:30.417Z,21.66
2018-09-30T15:39:23.022Z,21.52
2018-09-30T15:44:15.694Z,21.34
2018-09-30T15:49:08.867Z,21.24
2018-09-30T15:54:01.944Z,21.21
2018-09-30T15:58:54.626Z,21.17
2018-09-30T16:03:47.342Z,21.11
2018-09-30T16:08:40.090Z,21.09
2018-09-30T16:13:32.674Z,21.02
2018-09-30T16:18:25.409Z,20.89
2018-09-30T16:23:18.070Z,20.81
2018-09-30T16:28:10.782Z,20.61
2018-09-30T16:33:03.524Z,20.49
2018-09-30T16:37:56.178Z,20.35
2018-09-30T16:42:48.785Z,20.20
2018-09-30T16:47:41.534Z,20.01
2018-09-30T16:52:34.245Z,19.72
2018-09-30T16:57:26.934Z,19.46
2018-09-30T17:02:19.602Z,19.29
2018-09-30T17:07:12.271Z,19.07
2018-09-30T17:12:04.841Z,18.86
2018-09-30T17:16:57.810Z,18.71
2018-09-30T17:21:50.609Z,18.51
2018-09-30T17:26:43.389Z,18.34
2018-09-30T17:31:36.279Z,18.14
2018-09-30T17:36:29.070Z,17.99
2018-09-30T17:41:21.822Z,17.78
2018-09-30T17:46:14.882Z,17.60
2018-09-30T17:51:07.641Z,17.44
2018-09-30T17:56:00.278Z,17.29
2018-09-30T18:00:52.962Z,17.15
2018-09-30T18:05:45.690Z,17.04
2018-09-30T18:10:38.330Z,16.89
2018-09-30T18:15:31.114Z,16.73
2018-09-30T18:20:24.063Z,16.59
2018-09-30T18:25:16.613Z,16.49
2018-09-30T18:30:09.531Z,16.39
2018-09-30T18:35:02.216Z,16.25
2018-09-30T18:39:54.943Z,16.18
2018-09-30T18:44:47.561Z,16.05
2018-09-30T18:49:40.192Z,15.90
2018-09-30T18:54:32.877Z,15.83
2018-09-30T18:59:25.764Z,15.76
2018-09-30T19:04:18.537Z,15.63
2018-09-30T19:09:11.142Z,15.54
2018-09-30T19:14:04.197Z,15.40
2018-09-30T19:18:56.816Z,15.29
2018-09-30T19:23:49.430Z,15.23
2018-09-30T19:28:42.045Z,15.09
2018-09-30T19:33:34.679Z,15.05
2018-09-30T19:38:27.400Z,14.96
2018-09-30T19:43:20.145Z,14.81
2018-09-30T19:48:13.643Z,14.72
2018-09-30T19:53:06.295Z,14.71
2018-09-30T19:57:58.947Z,14.67
2018-09-30T20:02:51.590Z,14.58
2018-09-30T20:07:44.356Z,14.44
2018-09-30T20:12:36.992Z,14.34
2018-09-30T20:17:29.642Z,14.21
2018-09-30T20:22:22.270Z,14.10
2018-09-30T20:27:15.028Z,14.00
2018-09-30T20:32:07.581Z,13.88
2018-09-30T20:37:00.088Z,13.72
2018-09-30T20:41:52.787Z,13.65
2018-09-30T20:46:45.410Z,13.56
2018-09-30T20:51:38.179Z,13.49
2018-09-30T20:56:30.831Z,13.41
2018-09-30T21:01:23.566Z,13.25
2018-09-30T21:06:24.634Z,13.18
2018-09-30T21:11:17.351Z,13.10
2018-09-30T21:16:10.018Z,13.04
2018-09-30T21:21:02.625Z,12.99
2018-09-30T21:25:55.718Z,12.93
2018-09-30T21:30:48.459Z,12.84
2018-09-30T21:35:41.129Z,12.78
2018-09-30T21:40:33.854Z,12.68
2018-09-30T21:45:26.684Z,12.58
2018-09-30T21:50:19.373Z,12.46
2018-09-30T21:55:12.082Z,12.37
2018-09-30T22:00:05.930Z,12.28
2018-09-30T22:04:58.690Z,12.25
2018-09-30T22:09:51.333Z,12.21
2018-09-30T22:14:43.946Z,12.15
2018-09-30T22:19:36.644Z,12.09
2018-09-30T22:24:29.288Z,11.97
2018-09-30T22:29:21.966Z,11.86
2018-09-30T22:34:14.655Z,11.71
2018-09-30T22:39:08.102Z,11.60
2018-09-30T22:44:00.769Z,11.55
2018-09-30T22:48:53.426Z,11.48
2018-09-30T22:53:46.087Z,11.44
2018-09-30T22:58:38.855Z,11.41
2018-09-30T23:03:31.495Z,11.36
2018-09-30T23:08:24.134Z,11.26
2018-09-30T23:13:16.918Z,11.22
2018-09-30T23:18:09.558Z,11.17
2018-09-30T23:23:02.157Z,11.10
2018-09-30T23:27:54.837Z,11.03
2018-09-30T23:32:47.502Z,10.99
2018-09-30T23:37:40.118Z,11.00
2018-09-30T23:42:32.770Z,11.02
2018-09-30T23:47:25.491Z,11.05
2018-09-30T23:52:18.130Z,11.05
2018-09-30T23:57:10.760Z,11.08
